createdAt,value
2023-03-05T00:06:48.184Z,1.35
2023-03-05T00:26:48.160Z,1.24
2023-03-05T00:46:48.200Z,1.16
2023-03-05T01:06:48.106Z,1.26
2023-03-05T01:26:48.063Z,1.34
2023-03-05T01:46:48.015Z,1.37
2023-03-05T02:06:48.102Z,1.38
2023-03-05T02:26:48.082Z,1.33
2023-03-05T02:46:47.998Z,1.38
2023-03-05T03:06:48.009Z,1.44
2023-03-05T03:26:47.988Z,1.52
2023-03-05T03:46:48.084Z,1.58
2023-03-05T04:06:48.011Z,1.62
2023-03-05T04:26:48.077Z,1.63
2023-03-05T04:46:47.976Z,1.72
2023-03-05T05:06:48.000Z,1.74
2023-03-05T05:26:47.953Z,1.74
2023-03-05T05:46:48.014Z,1.79
2023-03-05T06:06:47.950Z,1.84
2023-03-05T06:26:47.958Z,1.87
2023-03-05T06:46:48.101Z,1.92
2023-03-05T07:06:47.952Z,2.00
2023-03-05T07:26:47.946Z,2.09
2023-03-05T07:46:48.040Z,2.16
2023-03-05T08:06:48.055Z,2.31
2023-03-05T08:26:47.929Z,2.47
2023-03-05T08:46:47.952Z,2.58
2023-03-05T09:06:47.896Z,2.67
2023-03-05T09:26:47.894Z,2.88
2023-03-05T09:46:47.946Z,3.02
2023-03-05T10:06:47.953Z,3.19
2023-03-05T10:46:47.877Z,3.51
2023-03-05T11:06:47.866Z,3.59
2023-03-05T11:26:47.837Z,3.67
2023-03-05T11:46:47.851Z,3.83
2023-03-05T12:06:47.884Z,3.90
2023-03-05T12:26:47.809Z,3.97
2023-03-05T12:46:47.824Z,4.05
2023-03-05T13:06:47.878Z,4.07
2023-03-05T13:26:47.977Z,4.07
2023-03-05T13:46:47.773Z,4.12
2023-03-05T14:06:47.754Z,4.16
2023-03-05T14:26:47.829Z,4.10
2023-03-05T14:46:47.867Z,4.04
2023-03-05T15:06:47.748Z,3.99
2023-03-05T15:26:47.838Z,3.95
2023-03-05T15:46:47.738Z,3.85
2023-03-05T16:06:47.690Z,3.71
2023-03-05T16:26:47.802Z,3.68
2023-03-05T16:46:47.736Z,3.75
2023-03-05T17:06:47.865Z,3.57
2023-03-05T17:26:47.674Z,3.27
2023-03-05T17:46:47.731Z,3.12
2023-03-05T18:06:47.659Z,3.21
2023-03-05T18:26:47.647Z,2.98
2023-03-05T18:46:47.639Z,3.03
2023-03-05T19:06:47.634Z,3.09
2023-03-05T19:26:47.695Z,3.09
2023-03-05T19:46:47.778Z,3.16
2023-03-05T20:06:47.713Z,3.12
2023-03-05T20:26:47.588Z,3.10
2023-03-05T20:46:47.623Z,3.08
2023-03-05T21:06:47.667Z,2.95
2023-03-05T21:26:47.670Z,2.95
2023-03-05T21:46:47.569Z,2.91
2023-03-05T22:06:47.539Z,2.93
2023-03-05T22:26:47.601Z,2.86
2023-03-05T22:46:47.664Z,2.62
2023-03-05T23:06:47.608Z,2.54
2023-03-05T23:26:47.684Z,2.46
2023-03-05T23:46:47.595Z,2.51
